Impacts TAF Board INFO
IDs:

KMIA - Miami Intl, FL, US

Issued at 1120 UTC 11 Dec 2016
Updated at 1149 UTC 11 Dec 2016
Potential Impact None Slight Moderate High
Time1140Z 11/12Z 11/13Z 11/14Z 11/15Z 11/16Z 11/17Z 11/18Z 11/19Z 11/20Z 11/21Z 11/22Z 11/23Z 12/00Z
Type OBS PRVL PRVL PRVL PRVL PRVL PRVL PRVL PRVL PRVL PRVL PRVL PRVL PRVL
VIS 9 >6 >6 >6 >6 >6 >6 >6 >6 >6 >6 >6 >6 >6
CIG 26 40 40 40 40 40 40 40 40 40 40 40 40 40
Cover OVC BKN BKN OVC OVC OVC OVC OVC OVC OVC OVC OVC OVC OVC
FltCat MVFR VFR VFR VFR VFR VFR VFR VFR VFR VFR VFR VFR VFR VFR
WX -RA VCSH VCSH VCSH VCSH VCSH VCSH VCSH VCSH VCSH VCSH VCSH VCSH VCSH
WDir 70 60 60 100 100 100 100 100 100 100 100 100 100 100
WSpd 11 11 11 17 17 17 17 17 17 17 17 17 17 17
WGst 21 -- -- 27 27 27 27 27 27 27 27 27 27 27

Raw TAF
KMIA 111120Z 1112/1212 06011KT P6SM VCSH FEW020 SCT035 BKN040
  FM111400 10017G27KT P6SM VCSH SCT020 BKN040 OVC060
  FM120200 11007KT P6SM SCT035 BKN050 BKN080


Raw METAR
KMIA 111140Z 07011G21KT 9SM -RA BKN026 OVC036 23/19 A3017 RMK AO2 RAB36 P0000 T02280194
KMIA 111053Z 07011KT 10SM SCT028 BKN038 BKN060 22/19 A3016 RMK AO2 SLP214 T02220189
KMIA 110953Z 07010G17KT 10SM FEW022 SCT029 BKN038 22/19 A3016 RMK AO2 RAB0854E04 SLP212 P0000 T02220194
KMIA 110915Z 06012KT 10SM FEW022 SCT029 OVC036 22/19 A3016 RMK AO2 RAB0854E04 P0000 T02170194
KMIA 110853Z 07009G18KT 10SM SCT020 OVC029 22/19 A3017 RMK AO2 RAB18E48 SLP215 P0002 60005 T02170194 56014

METAR Board
Radar Display
Forecast Discussion